sensor_id;sensor_type;location;lat;lon;timestamp;pressure;altitude;pressure_sealevel;temperature;humidity
67840;BME280;54636;51.684;5.142;2023-02-19T00:01:37;101858.00;;;10.16;100.00
67840;BME280;54636;51.684;5.142;2023-02-19T00:04:11;101851.34;;;9.99;100.00
67840;BME280;54636;51.684;5.142;2023-02-19T00:06:37;101849.38;;;9.90;100.00
67840;BME280;54636;51.684;5.142;2023-02-19T00:09:03;101859.03;;;9.91;100.00
67840;BME280;54636;51.684;5.142;2023-02-19T00:11:31;101870.34;;;9.99;100.00
67840;BME280;54636;51.684;5.142;2023-02-19T00:13:58;101879.69;;;9.98;100.00
67840;BME280;54636;51.684;5.142;2023-02-19T00:16:30;101868.66;;;9.83;100.00
67840;BME280;54636;51.684;5.142;2023-02-19T00:18:57;101890.25;;;9.96;100.00
67840;BME280;54636;51.684;5.142;2023-02-19T00:21:24;101859.47;;;9.71;100.00
67840;BME280;54636;51.684;5.142;2023-02-19T00:23:55;101874.97;;;9.80;100.00
67840;BME280;54636;51.684;5.142;2023-02-19T00:26:22;101866.72;;;9.74;100.00
67840;BME280;54636;51.684;5.142;2023-02-19T00:28:48;101865.94;;;9.74;100.00
67840;BME280;54636;51.684;5.142;2023-02-19T00:33:40;101886.47;;;9.93;100.00
67840;BME280;54636;51.684;5.142;2023-02-19T00:36:06;101874.84;;;9.83;100.00
67840;BME280;54636;51.684;5.142;2023-02-19T00:38:35;101849.34;;;9.63;100.00
67840;BME280;54636;51.684;5.142;2023-02-19T00:41:01;101887.81;;;9.88;100.00
67840;BME280;54636;51.684;5.142;2023-02-19T00:46:20;101860.06;;;9.66;100.00
67840;BME280;54636;51.684;5.142;2023-02-19T00:48:47;101887.19;;;9.75;100.00
67840;BME280;54636;51.684;5.142;2023-02-19T00:51:13;101881.75;;;9.66;100.00
67840;BME280;54636;51.684;5.142;2023-02-19T00:53:39;101860.03;;;9.57;100.00
67840;BME280;54636;51.684;5.142;2023-02-19T00:56:05;101888.38;;;9.65;100.00
67840;BME280;54636;51.684;5.142;2023-02-19T00:58:31;101894.25;;;9.64;100.00
67840;BME280;54636;51.684;5.142;2023-02-19T01:00:56;101902.84;;;9.62;100.00
67840;BME280;54636;51.684;5.142;2023-02-19T01:03:22;101906.88;;;9.57;100.00
67840;BME280;54636;51.684;5.142;2023-02-19T01:05:48;101896.22;;;9.63;100.00
67840;BME280;54636;51.684;5.142;2023-02-19T01:08:14;101882.13;;;9.46;100.00
67840;BME280;54636;51.684;5.142;2023-02-19T01:10:39;101901.91;;;9.56;100.00
67840;BME280;54636;51.684;5.142;2023-02-19T01:13:05;101887.09;;;9.48;100.00
67840;BME280;54636;51.684;5.142;2023-02-19T01:15:32;101859.66;;;9.37;100.00
67840;BME280;54636;51.684;5.142;2023-02-19T01:17:57;101905.38;;;9.56;100.00
67840;BME280;54636;51.684;5.142;2023-02-19T01:20:22;101916.97;;;9.57;100.00
67840;BME280;54636;51.684;5.142;2023-02-19T01:22:48;101889.81;;;9.48;100.00
67840;BME280;54636;51.684;5.142;2023-02-19T01:25:13;101884.34;;;9.39;100.00
67840;BME280;54636;51.684;5.142;2023-02-19T01:27:38;101917.16;;;9.63;100.00
67840;BME280;54636;51.684;5.142;2023-02-19T01:30:04;101900.41;;;9.55;100.00
67840;BME280;54636;51.684;5.142;2023-02-19T01:32:29;101884.69;;;9.50;100.00
67840;BME280;54636;51.684;5.142;2023-02-19T01:34:55;101921.50;;;9.60;100.00
67840;BME280;54636;51.684;5.142;2023-02-19T01:37:20;101908.97;;;9.53;100.00
67840;BME280;54636;51.684;5.142;2023-02-19T01:39:46;101930.38;;;9.51;100.00
67840;BME280;54636;51.684;5.142;2023-02-19T01:42:14;101905.16;;;9.42;100.00
67840;BME280;54636;51.684;5.142;2023-02-19T01:47:14;101923.28;;;9.54;100.00
67840;BME280;54636;51.684;5.142;2023-02-19T01:49:47;101930.94;;;9.46;100.00
67840;BME280;54636;51.684;5.142;2023-02-19T01:52:23;101927.91;;;9.44;100.00
67840;BME280;54636;51.684;5.142;2023-02-19T01:54:50;101918.34;;;9.31;100.00
67840;BME280;54636;51.684;5.142;2023-02-19T01:57:20;101901.03;;;9.28;100.00
67840;BME280;54636;51.684;5.142;2023-02-19T01:59:48;101914.81;;;9.43;100.00
67840;BME280;54636;51.684;5.142;2023-02-19T02:02:17;101913.47;;;9.47;100.00
67840;BME280;54636;51.684;5.142;2023-02-19T02:04:42;101884.72;;;9.19;100.00
67840;BME280;54636;51.684;5.142;2023-02-19T02:07:08;101899.69;;;9.33;100.00
67840;BME280;54636;51.684;5.142;2023-02-19T02:09:54;101922.63;;;9.41;100.00
67840;BME280;54636;51.684;5.142;2023-02-19T02:12:39;101923.81;;;9.40;100.00
67840;BME280;54636;51.684;5.142;2023-02-19T02:15:05;101915.69;;;9.40;100.00
67840;BME280;54636;51.684;5.142;2023-02-19T02:18:01;101908.84;;;9.26;100.00
67840;BME280;54636;51.684;5.142;2023-02-19T02:26:14;101904.44;;;9.19;100.00
67840;BME280;54636;51.684;5.142;2023-02-19T02:29:41;101926.38;;;9.34;100.00
67840;BME280;54636;51.684;5.142;2023-02-19T02:32:10;101920.19;;;9.34;100.00
67840;BME280;54636;51.684;5.142;2023-02-19T02:35:05;101914.88;;;9.30;100.00
67840;BME280;54636;51.684;5.142;2023-02-19T02:37:31;101919.69;;;9.26;100.00
67840;BME280;54636;51.684;5.142;2023-02-19T02:39:59;101908.22;;;9.22;100.00
67840;BME280;54636;51.684;5.142;2023-02-19T02:42:24;101922.84;;;9.24;100.00
67840;BME280;54636;51.684;5.142;2023-02-19T02:44:53;101928.13;;;9.28;100.00
67840;BME280;54636;51.684;5.142;2023-02-19T02:47:52;101915.78;;;9.27;100.00
67840;BME280;54636;51.684;5.142;2023-02-19T02:52:53;101940.50;;;9.29;100.00
67840;BME280;54636;51.684;5.142;2023-02-19T02:55:42;101922.03;;;9.15;100.00
67840;BME280;54636;51.684;5.142;2023-02-19T02:58:09;101938.09;;;9.31;100.00
67840;BME280;54636;51.684;5.142;2023-02-19T03:00:37;101929.91;;;9.22;100.00
67840;BME280;54636;51.684;5.142;2023-02-19T03:03:23;101945.91;;;9.29;100.00
67840;BME280;54636;51.684;5.142;2023-02-19T03:05:52;101936.72;;;9.27;100.00
67840;BME280;54636;51.684;5.142;2023-02-19T03:11:20;101946.22;;;9.31;100.00
67840;BME280;54636;51.684;5.142;2023-02-19T03:14:19;101956.00;;;9.29;100.00
67840;BME280;54636;51.684;5.142;2023-02-19T03:17:14;101952.22;;;9.26;100.00
67840;BME280;54636;51.684;5.142;2023-02-19T03:20:02;101940.75;;;9.22;100.00
67840;BME280;54636;51.684;5.142;2023-02-19T03:22:32;101950.09;;;9.52;100.00
67840;BME280;54636;51.684;5.142;2023-02-19T03:27:53;101935.97;;;9.26;100.00
67840;BME280;54636;51.684;5.142;2023-02-19T03:30:24;101964.38;;;9.43;100.00
67840;BME280;54636;51.684;5.142;2023-02-19T03:35:32;101959.19;;;9.58;100.00
67840;BME280;54636;51.684;5.142;2023-02-19T03:40:28;101963.16;;;9.44;100.00
67840;BME280;54636;51.684;5.142;2023-02-19T03:43:13;101956.59;;;9.54;100.00
67840;BME280;54636;51.684;5.142;2023-02-19T03:45:55;101968.34;;;9.51;100.00
67840;BME280;54636;51.684;5.142;2023-02-19T03:48:33;101954.97;;;9.35;100.00
67840;BME280;54636;51.684;5.142;2023-02-19T03:53:47;101988.06;;;9.52;100.00
67840;BME280;54636;51.684;5.142;2023-02-19T03:56:35;101994.19;;;9.43;100.00
67840;BME280;54636;51.684;5.142;2023-02-19T03:59:08;101974.09;;;9.32;100.00
67840;BME280;54636;51.684;5.142;2023-02-19T04:01:42;101983.47;;;9.40;100.00
67840;BME280;54636;51.684;5.142;2023-02-19T04:04:41;101988.59;;;9.38;100.00
67840;BME280;54636;51.684;5.142;2023-02-19T04:07:07;101996.53;;;9.32;100.00
67840;BME280;54636;51.684;5.142;2023-02-19T04:09:40;101983.75;;;9.33;100.00
67840;BME280;54636;51.684;5.142;2023-02-19T04:12:08;101999.44;;;9.38;100.00
67840;BME280;54636;51.684;5.142;2023-02-19T04:17:09;102012.88;;;9.41;100.00
67840;BME280;54636;51.684;5.142;2023-02-19T04:19:39;102002.03;;;9.19;100.00
67840;BME280;54636;51.684;5.142;2023-02-19T04:22:07;101998.63;;;9.28;100.00
67840;BME280;54636;51.684;5.142;2023-02-19T04:24:40;101988.34;;;9.45;100.00
67840;BME280;54636;51.684;5.142;2023-02-19T04:27:08;101999.94;;;9.23;100.00
67840;BME280;54636;51.684;5.142;2023-02-19T04:29:34;102010.97;;;9.29;100.00
67840;BME280;54636;51.684;5.142;2023-02-19T04:31:59;102024.22;;;9.27;100.00
67840;BME280;54636;51.684;5.142;2023-02-19T04:34:25;102024.59;;;9.16;100.00
67840;BME280;54636;51.684;5.142;2023-02-19T04:36:50;102030.44;;;9.15;100.00
67840;BME280;54636;51.684;5.142;2023-02-19T04:39:15;102029.03;;;9.01;100.00
67840;BME280;54636;51.684;5.142;2023-02-19T04:41:41;102045.31;;;9.10;100.00
67840;BME280;54636;51.684;5.142;2023-02-19T04:44:06;102030.00;;;8.95;100.00
67840;BME280;54636;51.684;5.142;2023-02-19T04:46:32;102050.56;;;9.05;100.00
67840;BME280;54636;51.684;5.142;2023-02-19T04:48:57;102054.38;;;9.07;100.00
67840;BME280;54636;51.684;5.142;2023-02-19T04:51:22;102058.28;;;9.06;100.00
67840;BME280;54636;51.684;5.142;2023-02-19T04:53:48;102047.88;;;9.05;100.00
67840;BME280;54636;51.684;5.142;2023-02-19T04:56:15;102056.69;;;8.96;100.00
67840;BME280;54636;51.684;5.142;2023-02-19T04:58:41;102076.16;;;9.04;100.00
67840;BME280;54636;51.684;5.142;2023-02-19T05:01:07;102064.41;;;8.85;100.00
67840;BME280;54636;51.684;5.142;2023-02-19T05:03:33;102081.38;;;8.98;100.00
67840;BME280;54636;51.684;5.142;2023-02-19T05:06:07;102076.00;;;8.85;100.00
67840;BME280;54636;51.684;5.142;2023-02-19T05:08:33;102097.75;;;8.95;100.00
67840;BME280;54636;51.684;5.142;2023-02-19T05:10:59;102080.75;;;8.94;100.00
67840;BME280;54636;51.684;5.142;2023-02-19T05:13:25;102095.69;;;8.99;100.00
67840;BME280;54636;51.684;5.142;2023-02-19T05:15:59;102104.22;;;9.10;100.00
67840;BME280;54636;51.684;5.142;2023-02-19T05:18:25;102100.56;;;9.04;100.00
67840;BME280;54636;51.684;5.142;2023-02-19T05:20:51;102120.53;;;8.97;100.00
67840;BME280;54636;51.684;5.142;2023-02-19T05:23:18;102117.38;;;8.99;100.00
67840;BME280;54636;51.684;5.142;2023-02-19T05:25:43;102119.97;;;8.89;100.00
67840;BME280;54636;51.684;5.142;2023-02-19T05:28:09;102114.03;;;8.82;100.00
67840;BME280;54636;51.684;5.142;2023-02-19T05:30:49;102117.72;;;8.75;100.00
67840;BME280;54636;51.684;5.142;2023-02-19T05:33:16;102117.19;;;8.80;100.00
67840;BME280;54636;51.684;5.142;2023-02-19T05:35:47;102101.81;;;8.65;100.00
67840;BME280;54636;51.684;5.142;2023-02-19T05:38:13;102088.28;;;8.52;100.00
67840;BME280;54636;51.684;5.142;2023-02-19T05:40:39;102107.66;;;8.63;100.00
67840;BME280;54636;51.684;5.142;2023-02-19T05:43:05;102121.53;;;8.65;100.00
67840;BME280;54636;51.684;5.142;2023-02-19T05:45:32;102120.13;;;8.61;100.00
67840;BME280;54636;51.684;5.142;2023-02-19T05:47:57;102128.91;;;8.65;100.00
67840;BME280;54636;51.684;5.142;2023-02-19T05:50:23;102123.25;;;8.72;100.00
67840;BME280;54636;51.684;5.142;2023-02-19T05:52:48;102110.03;;;8.61;100.00
67840;BME280;54636;51.684;5.142;2023-02-19T05:55:14;102118.16;;;8.61;100.00
67840;BME280;54636;51.684;5.142;2023-02-19T05:57:40;102106.47;;;8.51;100.00
67840;BME280;54636;51.684;5.142;2023-02-19T06:00:08;102128.13;;;8.64;100.00
67840;BME280;54636;51.684;5.142;2023-02-19T06:02:35;102122.41;;;8.62;100.00
67840;BME280;54636;51.684;5.142;2023-02-19T06:05:00;102109.84;;;8.55;100.00
67840;BME280;54636;51.684;5.142;2023-02-19T06:07:26;102120.44;;;8.63;100.00
67840;BME280;54636;51.684;5.142;2023-02-19T06:09:51;102129.97;;;8.67;100.00
67840;BME280;54636;51.684;5.142;2023-02-19T06:12:17;102108.97;;;8.58;100.00
67840;BME280;54636;51.684;5.142;2023-02-19T06:14:42;102123.69;;;8.57;100.00
67840;BME280;54636;51.684;5.142;2023-02-19T06:17:07;102117.53;;;8.57;100.00
67840;BME280;54636;51.684;5.142;2023-02-19T06:19:33;102140.38;;;8.69;100.00
67840;BME280;54636;51.684;5.142;2023-02-19T06:21:58;102128.25;;;8.61;100.00
67840;BME280;54636;51.684;5.142;2023-02-19T06:24:24;102143.63;;;8.76;100.00
67840;BME280;54636;51.684;5.142;2023-02-19T06:26:49;102139.72;;;8.65;100.00
67840;BME280;54636;51.684;5.142;2023-02-19T06:29:15;102154.03;;;8.78;100.00
67840;BME280;54636;51.684;5.142;2023-02-19T06:31:41;102147.84;;;8.77;100.00
67840;BME280;54636;51.684;5.142;2023-02-19T06:34:06;102174.63;;;8.88;100.00
67840;BME280;54636;51.684;5.142;2023-02-19T06:36:32;102162.25;;;8.74;100.00
67840;BME280;54636;51.684;5.142;2023-02-19T06:38:59;102185.88;;;8.86;100.00
67840;BME280;54636;51.684;5.142;2023-02-19T06:41:24;102161.50;;;8.74;100.00
67840;BME280;54636;51.684;5.142;2023-02-19T06:43:50;102173.44;;;8.76;100.00
67840;BME280;54636;51.684;5.142;2023-02-19T06:46:15;102181.00;;;8.69;100.00
67840;BME280;54636;51.684;5.142;2023-02-19T06:48:43;102194.78;;;8.74;100.00
67840;BME280;54636;51.684;5.142;2023-02-19T06:51:13;102197.25;;;8.69;100.00
67840;BME280;54636;51.684;5.142;2023-02-19T06:53:39;102185.56;;;8.59;100.00
67840;BME280;54636;51.684;5.142;2023-02-19T06:56:18;102170.81;;;8.47;100.00
67840;BME280;54636;51.684;5.142;2023-02-19T06:58:44;102174.09;;;8.42;100.00
67840;BME280;54636;51.684;5.142;2023-02-19T07:01:10;102183.91;;;8.49;100.00
67840;BME280;54636;51.684;5.142;2023-02-19T07:03:36;102173.53;;;8.35;100.00
67840;BME280;54636;51.684;5.142;2023-02-19T07:06:01;102200.28;;;8.45;100.00
67840;BME280;54636;51.684;5.142;2023-02-19T07:08:26;102200.16;;;8.49;100.00
67840;BME280;54636;51.684;5.142;2023-02-19T07:10:56;102189.09;;;8.31;100.00
67840;BME280;54636;51.684;5.142;2023-02-19T07:13:23;102205.91;;;8.38;100.00
67840;BME280;54636;51.684;5.142;2023-02-19T07:15:48;102197.63;;;8.29;100.00
67840;BME280;54636;51.684;5.142;2023-02-19T07:18:14;102208.19;;;8.40;100.00
67840;BME280;54636;51.684;5.142;2023-02-19T07:20:39;102217.19;;;8.37;100.00
67840;BME280;54636;51.684;5.142;2023-02-19T07:23:04;102226.16;;;8.34;100.00
67840;BME280;54636;51.684;5.142;2023-02-19T07:25:30;102241.53;;;8.37;100.00
67840;BME280;54636;51.684;5.142;2023-02-19T07:27:56;102241.00;;;8.42;100.00
67840;BME280;54636;51.684;5.142;2023-02-19T07:30:21;102244.16;;;8.40;100.00
67840;BME280;54636;51.684;5.142;2023-02-19T07:32:46;102237.75;;;8.34;100.00
67840;BME280;54636;51.684;5.142;2023-02-19T07:35:12;102254.50;;;8.29;100.00
67840;BME280;54636;51.684;5.142;2023-02-19T07:37:39;102231.28;;;8.15;100.00
67840;BME280;54636;51.684;5.142;2023-02-19T07:40:05;102257.47;;;8.35;100.00
67840;BME280;54636;51.684;5.142;2023-02-19T07:42:33;102264.28;;;8.39;100.00
67840;BME280;54636;51.684;5.142;2023-02-19T07:44:59;102239.97;;;8.23;100.00
67840;BME280;54636;51.684;5.142;2023-02-19T07:47:28;102266.16;;;8.42;100.00
67840;BME280;54636;51.684;5.142;2023-02-19T07:49:59;102275.34;;;8.45;100.00
67840;BME280;54636;51.684;5.142;2023-02-19T07:52:24;102285.44;;;8.44;100.00
67840;BME280;54636;51.684;5.142;2023-02-19T07:54:50;102289.19;;;8.47;100.00
67840;BME280;54636;51.684;5.142;2023-02-19T07:57:15;102301.44;;;8.51;100.00
67840;BME280;54636;51.684;5.142;2023-02-19T07:59:41;102298.97;;;8.57;100.00
67840;BME280;54636;51.684;5.142;2023-02-19T08:02:24;102299.22;;;8.63;100.00
67840;BME280;54636;51.684;5.142;2023-02-19T08:05:08;102303.56;;;8.73;100.00
67840;BME280;54636;51.684;5.142;2023-02-19T08:07:35;102325.47;;;8.78;100.00
67840;BME280;54636;51.684;5.142;2023-02-19T08:10:02;102297.06;;;8.70;100.00
67840;BME280;54636;51.684;5.142;2023-02-19T08:12:57;102318.31;;;8.84;100.00
67840;BME280;54636;51.684;5.142;2023-02-19T08:15:42;102319.50;;;8.83;100.00
67840;BME280;54636;51.684;5.142;2023-02-19T08:18:08;102331.22;;;8.93;100.00
67840;BME280;54636;51.684;5.142;2023-02-19T08:20:34;102320.69;;;8.82;100.00
67840;BME280;54636;51.684;5.142;2023-02-19T08:22:59;102341.31;;;8.93;100.00
67840;BME280;54636;51.684;5.142;2023-02-19T08:25:24;102338.94;;;8.95;100.00
67840;BME280;54636;51.684;5.142;2023-02-19T08:27:50;102342.97;;;9.03;100.00
67840;BME280;54636;51.684;5.142;2023-02-19T08:30:15;102324.00;;;9.03;100.00
67840;BME280;54636;51.684;5.142;2023-02-19T08:32:41;102335.81;;;9.09;100.00
67840;BME280;54636;51.684;5.142;2023-02-19T08:35:06;102341.44;;;9.14;100.00
67840;BME280;54636;51.684;5.142;2023-02-19T08:37:32;102325.91;;;9.15;100.00
67840;BME280;54636;51.684;5.142;2023-02-19T08:39:57;102322.13;;;9.25;100.00
67840;BME280;54636;51.684;5.142;2023-02-19T08:42:23;102338.72;;;9.40;100.00
67840;BME280;54636;51.684;5.142;2023-02-19T08:44:49;102328.84;;;9.46;100.00
67840;BME280;54636;51.684;5.142;2023-02-19T08:47:14;102337.75;;;9.46;100.00
67840;BME280;54636;51.684;5.142;2023-02-19T08:49:39;102341.75;;;9.54;100.00
67840;BME280;54636;51.684;5.142;2023-02-19T08:52:05;102350.97;;;9.70;100.00
67840;BME280;54636;51.684;5.142;2023-02-19T08:54:30;102356.06;;;9.68;100.00
67840;BME280;54636;51.684;5.142;2023-02-19T08:56:57;102358.34;;;9.69;100.00
67840;BME280;54636;51.684;5.142;2023-02-19T08:59:22;102363.34;;;9.71;100.00
67840;BME280;54636;51.684;5.142;2023-02-19T09:01:47;102361.72;;;9.73;100.00
67840;BME280;54636;51.684;5.142;2023-02-19T09:04:13;102366.50;;;9.69;100.00
67840;BME280;54636;51.684;5.142;2023-02-19T09:06:38;102366.28;;;9.64;100.00
67840;BME280;54636;51.684;5.142;2023-02-19T09:09:04;102359.97;;;9.67;100.00
67840;BME280;54636;51.684;5.142;2023-02-19T09:11:29;102357.81;;;9.62;100.00
67840;BME280;54636;51.684;5.142;2023-02-19T09:14:05;102330.81;;;9.45;100.00
67840;BME280;54636;51.684;5.142;2023-02-19T09:16:32;102339.91;;;9.51;100.00
67840;BME280;54636;51.684;5.142;2023-02-19T09:18:58;102369.19;;;9.69;100.00
67840;BME280;54636;51.684;5.142;2023-02-19T09:21:23;102357.03;;;9.74;100.00
67840;BME280;54636;51.684;5.142;2023-02-19T09:23:49;102366.88;;;9.80;100.00
67840;BME280;54636;51.684;5.142;2023-02-19T09:26:14;102355.44;;;9.64;100.00
67840;BME280;54636;51.684;5.142;2023-02-19T09:28:40;102367.69;;;9.68;100.00
67840;BME280;54636;51.684;5.142;2023-02-19T09:31:11;102367.03;;;9.64;100.00
67840;BME280;54636;51.684;5.142;2023-02-19T09:33:41;102365.63;;;9.60;100.00
67840;BME280;54636;51.684;5.142;2023-02-19T09:36:06;102381.75;;;9.76;100.00
67840;BME280;54636;51.684;5.142;2023-02-19T09:38:32;102362.75;;;9.76;100.00
67840;BME280;54636;51.684;5.142;2023-02-19T09:40:57;102380.53;;;9.89;100.00
67840;BME280;54636;51.684;5.142;2023-02-19T09:43:25;102375.56;;;9.88;100.00
67840;BME280;54636;51.684;5.142;2023-02-19T09:46:08;102408.88;;;10.01;100.00
67840;BME280;54636;51.684;5.142;2023-02-19T09:48:38;102384.72;;;9.69;100.00
67840;BME280;54636;51.684;5.142;2023-02-19T09:51:05;102425.81;;;9.93;100.00
67840;BME280;54636;51.684;5.142;2023-02-19T09:53:41;102407.69;;;9.89;100.00
67840;BME280;54636;51.684;5.142;2023-02-19T09:56:08;102377.19;;;9.85;100.00
67840;BME280;54636;51.684;5.142;2023-02-19T09:58:57;102429.38;;;10.15;100.00
67840;BME280;54636;51.684;5.142;2023-02-19T10:01:25;102449.47;;;10.30;100.00
67840;BME280;54636;51.684;5.142;2023-02-19T10:03:52;102432.31;;;10.20;100.00
67840;BME280;54636;51.684;5.142;2023-02-19T10:06:23;102444.25;;;10.36;100.00
67840;BME280;54636;51.684;5.142;2023-02-19T10:08:58;102425.03;;;10.30;100.00
67840;BME280;54636;51.684;5.142;2023-02-19T10:11:27;102414.41;;;10.23;100.00
67840;BME280;54636;51.684;5.142;2023-02-19T10:14:09;102460.88;;;10.60;100.00
67840;BME280;54636;51.684;5.142;2023-02-19T10:16:39;102447.72;;;10.58;100.00
67840;BME280;54636;51.684;5.142;2023-02-19T10:19:10;102475.63;;;10.71;100.00
67840;BME280;54636;51.684;5.142;2023-02-19T10:21:36;102443.06;;;10.59;100.00
67840;BME280;54636;51.684;5.142;2023-02-19T10:24:04;102479.31;;;10.99;100.00
67840;BME280;54636;51.684;5.142;2023-02-19T10:26:30;102455.84;;;10.71;100.00
67840;BME280;54636;51.684;5.142;2023-02-19T10:29:03;102494.53;;;10.75;100.00
67840;BME280;54636;51.684;5.142;2023-02-19T10:31:32;102506.06;;;10.66;100.00
67840;BME280;54636;51.684;5.142;2023-02-19T10:33:59;102485.25;;;10.50;100.00
67840;BME280;54636;51.684;5.142;2023-02-19T10:36:32;102491.75;;;10.53;100.00
67840;BME280;54636;51.684;5.142;2023-02-19T10:39:02;102500.19;;;10.68;100.00
67840;BME280;54636;51.684;5.142;2023-02-19T10:41:31;102477.75;;;10.54;100.00
67840;BME280;54636;51.684;5.142;2023-02-19T10:44:13;102516.94;;;10.66;100.00
67840;BME280;54636;51.684;5.142;2023-02-19T10:46:45;102509.47;;;10.57;100.00
67840;BME280;54636;51.684;5.142;2023-02-19T10:49:32;102515.88;;;10.64;100.00
67840;BME280;54636;51.684;5.142;2023-02-19T10:52:09;102518.97;;;10.75;100.00
67840;BME280;54636;51.684;5.142;2023-02-19T10:54:42;102513.63;;;10.84;99.94
67840;BME280;54636;51.684;5.142;2023-02-19T10:57:29;102515.03;;;10.88;100.00
67840;BME280;54636;51.684;5.142;2023-02-19T11:02:42;102516.34;;;11.06;100.00
67840;BME280;54636;51.684;5.142;2023-02-19T11:07:35;102503.84;;;11.30;98.05
67840;BME280;54636;51.684;5.142;2023-02-19T11:10:02;102521.22;;;11.54;97.73
67840;BME280;54636;51.684;5.142;2023-02-19T11:12:32;102508.09;;;11.62;97.42
67840;BME280;54636;51.684;5.142;2023-02-19T11:15:26;102511.13;;;11.64;97.64
67840;BME280;54636;51.684;5.142;2023-02-19T11:20:29;102505.22;;;11.35;96.67
67840;BME280;54636;51.684;5.142;2023-02-19T11:22:59;102506.81;;;11.23;97.62
67840;BME280;54636;51.684;5.142;2023-02-19T11:25:25;102501.56;;;11.29;99.29
67840;BME280;54636;51.684;5.142;2023-02-19T11:30:35;102509.72;;;11.07;97.57
67840;BME280;54636;51.684;5.142;2023-02-19T11:35:42;102503.69;;;10.68;98.13
67840;BME280;54636;51.684;5.142;2023-02-19T11:38:10;102519.97;;;10.68;98.88
67840;BME280;54636;51.684;5.142;2023-02-19T11:43:36;102513.16;;;10.51;100.00
67840;BME280;54636;51.684;5.142;2023-02-19T11:54:57;102517.03;;;10.75;98.20
67840;BME280;54636;51.684;5.142;2023-02-19T12:00:17;102514.84;;;11.05;92.60
67840;BME280;54636;51.684;5.142;2023-02-19T12:13:26;102495.47;;;10.81;91.30
67840;BME280;54636;51.684;5.142;2023-02-19T12:18:43;102494.44;;;11.00;90.83
67840;BME280;54636;51.684;5.142;2023-02-19T12:30:35;102519.44;;;10.73;91.56
67840;BME280;54636;51.684;5.142;2023-02-19T12:39:28;102525.69;;;10.48;90.68
67840;BME280;54636;51.684;5.142;2023-02-19T12:42:27;102542.66;;;10.40;90.57
67840;BME280;54636;51.684;5.142;2023-02-19T12:45:04;102531.69;;;10.31;91.35
67840;BME280;54636;51.684;5.142;2023-02-19T12:47:36;102537.69;;;10.26;90.94
67840;BME280;54636;51.684;5.142;2023-02-19T12:50:20;102536.03;;;10.15;91.34
67840;BME280;54636;51.684;5.142;2023-02-19T12:53:05;102521.56;;;10.06;91.98
67840;BME280;54636;51.684;5.142;2023-02-19T12:55:41;102529.94;;;9.99;93.31
67840;BME280;54636;51.684;5.142;2023-02-19T12:58:14;102527.34;;;9.95;92.83
67840;BME280;54636;51.684;5.142;2023-02-19T13:00:48;102535.03;;;9.97;94.31
67840;BME280;54636;51.684;5.142;2023-02-19T13:06:15;102536.22;;;9.83;93.60
67840;BME280;54636;51.684;5.142;2023-02-19T13:09:22;102559.03;;;9.85;93.96
67840;BME280;54636;51.684;5.142;2023-02-19T13:11:58;102555.97;;;9.71;95.33
67840;BME280;54636;51.684;5.142;2023-02-19T13:14:44;102563.38;;;9.70;95.99
67840;BME280;54636;51.684;5.142;2023-02-19T13:17:21;102567.69;;;9.68;96.09
67840;BME280;54636;51.684;5.142;2023-02-19T13:19:51;102563.66;;;9.60;95.69
67840;BME280;54636;51.684;5.142;2023-02-19T13:25:07;102580.28;;;9.62;97.61
67840;BME280;54636;51.684;5.142;2023-02-19T13:28:17;102579.59;;;9.57;97.16
67840;BME280;54636;51.684;5.142;2023-02-19T13:33:26;102575.13;;;9.51;98.84
67840;BME280;54636;51.684;5.142;2023-02-19T13:36:18;102582.63;;;9.47;100.00
67840;BME280;54636;51.684;5.142;2023-02-19T13:38:47;102594.84;;;9.39;100.00
67840;BME280;54636;51.684;5.142;2023-02-19T13:43:56;102589.28;;;9.30;100.00
67840;BME280;54636;51.684;5.142;2023-02-19T13:46:23;102589.59;;;9.32;100.00
67840;BME280;54636;51.684;5.142;2023-02-19T13:51:56;102598.84;;;9.34;100.00
67840;BME280;54636;51.684;5.142;2023-02-19T13:54:28;102608.59;;;9.32;100.00
67840;BME280;54636;51.684;5.142;2023-02-19T13:59:57;102598.94;;;9.31;100.00
67840;BME280;54636;51.684;5.142;2023-02-19T14:02:31;102613.25;;;9.31;100.00
67840;BME280;54636;51.684;5.142;2023-02-19T14:05:00;102616.91;;;9.24;100.00
67840;BME280;54636;51.684;5.142;2023-02-19T14:09:51;102627.06;;;9.20;100.00
67840;BME280;54636;51.684;5.142;2023-02-19T14:12:20;102606.97;;;9.05;100.00
67840;BME280;54636;51.684;5.142;2023-02-19T14:14:56;102625.31;;;9.14;100.00
67840;BME280;54636;51.684;5.142;2023-02-19T14:27:45;102593.84;;;9.04;100.00
67840;BME280;54636;51.684;5.142;2023-02-19T14:30:12;102616.47;;;9.26;100.00
67840;BME280;54636;51.684;5.142;2023-02-19T14:32:39;102612.59;;;9.27;100.00
67840;BME280;54636;51.684;5.142;2023-02-19T14:35:06;102610.53;;;9.31;100.00
67840;BME280;54636;51.684;5.142;2023-02-19T14:37:43;102615.09;;;9.34;100.00
67840;BME280;54636;51.684;5.142;2023-02-19T14:40:17;102619.94;;;9.27;100.00
67840;BME280;54636;51.684;5.142;2023-02-19T14:42:44;102608.44;;;9.22;100.00
67840;BME280;54636;51.684;5.142;2023-02-19T14:45:13;102610.72;;;9.24;100.00
67840;BME280;54636;51.684;5.142;2023-02-19T14:47:40;102606.25;;;9.17;100.00
67840;BME280;54636;51.684;5.142;2023-02-19T14:50:13;102605.22;;;9.11;100.00
67840;BME280;54636;51.684;5.142;2023-02-19T14:52:43;102603.75;;;8.94;100.00
67840;BME280;54636;51.684;5.142;2023-02-19T14:55:30;102607.91;;;8.99;100.00
67840;BME280;54636;51.684;5.142;2023-02-19T14:58:03;102607.75;;;8.89;100.00
67840;BME280;54636;51.684;5.142;2023-02-19T15:00:34;102606.22;;;8.88;100.00
67840;BME280;54636;51.684;5.142;2023-02-19T15:03:02;102591.66;;;8.82;100.00
67840;BME280;54636;51.684;5.142;2023-02-19T15:05:34;102595.78;;;8.87;100.00